createdAt,value
2023-03-16T00:01:27.952Z,70.94
2023-03-16T00:02:59.771Z,71.38
2023-03-16T00:04:31.651Z,71.43
2023-03-16T00:06:04.977Z,72.74
2023-03-16T00:07:36.930Z,73.44
2023-03-16T00:09:09.784Z,72.83
2023-03-16T00:10:46.651Z,72.98
2023-03-16T00:12:18.863Z,72.10
2023-03-16T00:13:50.524Z,72.58
2023-03-16T00:15:22.238Z,71.93
2023-03-16T00:16:53.875Z,71.75
2023-03-16T00:18:29.355Z,72.34
2023-03-16T00:20:06.566Z,72.65
2023-03-16T00:21:39.800Z,72.28
2023-03-16T00:23:11.991Z,71.28
2023-03-16T00:24:43.627Z,72.27
2023-03-16T00:26:15.321Z,72.52
2023-03-16T00:27:47.360Z,72.20
2023-03-16T00:29:19.179Z,72.22
2023-03-16T00:30:50.907Z,72.19
2023-03-16T00:32:23.562Z,72.97
2023-03-16T00:33:55.174Z,72.84
2023-03-16T00:35:26.829Z,72.81
2023-03-16T00:36:59.855Z,72.73
2023-03-16T00:38:32.485Z,72.22
2023-03-16T00:40:07.764Z,73.02
2023-03-16T00:41:39.505Z,72.89
2023-03-16T00:43:11.151Z,72.78
2023-03-16T00:44:42.867Z,72.99
2023-03-16T00:46:16.330Z,73.32
2023-03-16T00:47:48.043Z,72.94
2023-03-16T00:49:19.658Z,74.41
2023-03-16T00:50:54.353Z,73.24
2023-03-16T00:52:27.825Z,73.60
2023-03-16T00:53:59.811Z,72.94
2023-03-16T00:55:32.184Z,72.63
2023-03-16T00:57:04.075Z,75.28
2023-03-16T00:58:36.577Z,77.24
2023-03-16T01:00:13.104Z,76.14
2023-03-16T01:01:46.771Z,75.45
2023-03-16T01:03:18.532Z,74.03
2023-03-16T01:04:50.448Z,74.94
2023-03-16T01:06:22.204Z,74.51
2023-03-16T01:07:55.207Z,75.50
2023-03-16T01:09:26.855Z,74.45
2023-03-16T01:11:03.555Z,74.67
2023-03-16T01:12:35.476Z,73.00
2023-03-16T01:14:07.141Z,73.70
2023-03-16T01:15:39.281Z,73.78
2023-03-16T01:17:11.126Z,74.01
2023-03-16T01:18:42.773Z,74.35
2023-03-16T01:20:16.721Z,74.59
2023-03-16T01:21:48.351Z,76.74
2023-03-16T01:23:21.419Z,75.56
2023-03-16T01:24:53.059Z,73.96
2023-03-16T01:26:25.217Z,76.03
2023-03-16T01:27:56.903Z,75.97
2023-03-16T01:29:28.677Z,75.27
2023-03-16T01:31:03.045Z,76.07
2023-03-16T01:32:34.790Z,75.40
2023-03-16T01:34:06.519Z,77.63
2023-03-16T01:35:38.176Z,76.51
2023-03-16T01:37:09.807Z,76.12
2023-03-16T01:38:42.864Z,75.93
2023-03-16T01:40:14.666Z,76.77
2023-03-16T01:41:46.386Z,75.26
2023-03-16T01:43:18.320Z,76.88
2023-03-16T01:44:51.310Z,76.36
2023-03-16T01:46:24.601Z,75.93
2023-03-16T01:47:58.720Z,74.56
2023-03-16T01:49:32.763Z,75.79
2023-03-16T01:51:06.261Z,77.00
2023-03-16T01:52:38.137Z,76.18
2023-03-16T01:54:14.634Z,75.96
2023-03-16T01:55:46.326Z,76.00
2023-03-16T01:57:18.912Z,75.81
2023-03-16T01:58:51.170Z,74.83
2023-03-16T02:00:31.433Z,74.75
2023-03-16T02:02:03.218Z,75.17
2023-03-16T02:03:35.130Z,76.06
2023-03-16T02:05:09.707Z,75.17
2023-03-16T02:06:41.347Z,73.66
2023-03-16T02:08:13.021Z,74.27
2023-03-16T02:09:47.155Z,73.19
2023-03-16T02:11:18.806Z,74.02
2023-03-16T02:12:50.715Z,74.68
2023-03-16T02:14:22.518Z,74.27
2023-03-16T02:15:54.358Z,74.62
2023-03-16T02:17:27.814Z,74.60
2023-03-16T02:18:59.423Z,75.04
2023-03-16T02:20:35.350Z,76.22
2023-03-16T02:22:07.256Z,74.59
2023-03-16T02:23:38.887Z,74.97
2023-03-16T02:25:12.115Z,74.45
2023-03-16T02:26:45.760Z,73.36
2023-03-16T02:28:19.978Z,74.32
2023-03-16T02:29:56.203Z,74.03
2023-03-16T02:31:27.857Z,73.72
2023-03-16T02:32:59.561Z,73.46
2023-03-16T02:34:31.230Z,75.25
2023-03-16T02:36:03.617Z,76.47
2023-03-16T02:37:35.283Z,74.77
2023-03-16T02:39:06.938Z,75.27
2023-03-16T02:40:38.847Z,75.43
2023-03-16T02:42:12.036Z,75.66
2023-03-16T02:43:45.764Z,75.61
2023-03-16T02:45:18.713Z,74.85
2023-03-16T02:46:50.361Z,75.09
2023-03-16T02:48:23.528Z,75.61
2023-03-16T02:49:55.559Z,75.11
2023-03-16T02:51:27.168Z,74.52
2023-03-16T02:52:58.730Z,74.35
2023-03-16T02:54:30.492Z,74.33
2023-03-16T02:56:04.727Z,75.47
2023-03-16T02:57:36.434Z,75.70
2023-03-16T02:59:08.034Z,75.17
2023-03-16T03:00:41.002Z,75.15
2023-03-16T03:02:12.610Z,75.77
2023-03-16T03:03:44.204Z,74.86
2023-03-16T03:05:15.884Z,74.66
2023-03-16T03:06:47.434Z,74.88
2023-03-16T03:08:22.761Z,74.29
2023-03-16T03:09:54.374Z,74.49
2023-03-16T03:11:25.992Z,74.31
2023-03-16T03:12:58.022Z,75.06
2023-03-16T03:14:29.695Z,75.08
2023-03-16T03:16:02.894Z,74.70
2023-03-16T03:17:34.778Z,74.18
2023-03-16T03:19:06.338Z,75.26
2023-03-16T03:20:38.127Z,76.56
2023-03-16T03:22:11.080Z,75.17
2023-03-16T03:23:46.444Z,74.91
2023-03-16T03:25:18.635Z,74.83
2023-03-16T03:26:50.350Z,74.46
2023-03-16T03:28:22.226Z,75.50
2023-03-16T03:29:53.848Z,74.53
2023-03-16T03:31:26.813Z,74.73
2023-03-16T03:32:58.478Z,74.17
2023-03-16T03:34:30.212Z,76.13
2023-03-16T03:36:02.317Z,74.50
2023-03-16T03:37:34.213Z,74.68
2023-03-16T03:39:05.813Z,74.86
2023-03-16T03:40:37.632Z,74.17
2023-03-16T03:42:09.583Z,75.03
2023-03-16T03:43:41.483Z,74.53
2023-03-16T03:45:13.279Z,76.00
2023-03-16T03:46:46.544Z,74.40
2023-03-16T03:48:18.295Z,75.33
2023-03-16T03:49:49.950Z,75.01
2023-03-16T03:51:21.780Z,75.26
2023-03-16T03:52:53.597Z,74.46
2023-03-16T03:54:25.341Z,75.59
2023-03-16T03:55:56.999Z,75.24
2023-03-16T03:57:28.737Z,75.04
2023-03-16T03:59:00.417Z,75.05
2023-03-16T04:00:32.049Z,74.98
2023-03-16T04:02:05.391Z,75.53
2023-03-16T04:03:37.102Z,75.55
2023-03-16T04:05:09.392Z,74.97
2023-03-16T04:06:41.671Z,75.15
2023-03-16T04:08:13.425Z,76.66
2023-03-16T04:09:45.057Z,76.28
2023-03-16T04:11:16.757Z,76.18
2023-03-16T04:12:48.311Z,76.41
2023-03-16T04:14:19.872Z,78.20
2023-03-16T04:15:56.490Z,76.28
2023-03-16T04:17:29.554Z,75.40
2023-03-16T04:19:01.693Z,75.15
2023-03-16T04:20:33.389Z,75.12
2023-03-16T04:22:05.200Z,75.93
2023-03-16T04:23:36.804Z,75.06
2023-03-16T04:25:11.020Z,76.85
2023-03-16T04:26:45.121Z,75.55
2023-03-16T04:28:17.855Z,75.13
2023-03-16T04:29:49.506Z,75.24
2023-03-16T04:31:21.366Z,74.63
2023-03-16T04:32:54.433Z,75.00
2023-03-16T04:34:26.110Z,75.35
2023-03-16T04:35:57.807Z,75.82
2023-03-16T04:37:29.552Z,75.99
2023-03-16T04:39:02.143Z,75.73
2023-03-16T04:40:33.770Z,76.27
2023-03-16T04:42:06.179Z,76.22
2023-03-16T04:43:37.818Z,76.73
2023-03-16T04:45:10.385Z,76.53
2023-03-16T04:46:41.974Z,77.80
2023-03-16T04:48:14.966Z,77.23
2023-03-16T04:49:46.674Z,75.69
2023-03-16T04:51:18.285Z,76.06
2023-03-16T04:52:49.888Z,75.62
2023-03-16T04:54:21.611Z,76.71
2023-03-16T04:55:53.237Z,76.30
2023-03-16T04:57:25.293Z,75.45
2023-03-16T04:58:57.163Z,75.52
2023-03-16T05:00:29.109Z,76.01
2023-03-16T05:02:01.025Z,75.78
2023-03-16T05:03:34.782Z,75.99
2023-03-16T05:05:06.952Z,76.39
2023-03-16T05:06:38.563Z,75.55
2023-03-16T05:08:10.825Z,76.35
2023-03-16T05:09:42.563Z,77.62
2023-03-16T05:11:14.282Z,76.32
2023-03-16T05:12:46.404Z,77.70
2023-03-16T05:14:18.049Z,78.68
2023-03-16T05:15:49.727Z,77.79
2023-03-16T05:17:22.230Z,77.47
2023-03-16T05:18:57.953Z,77.14
2023-03-16T05:20:30.304Z,77.20
2023-03-16T05:22:02.114Z,77.93
2023-03-16T05:23:33.923Z,79.19
2023-03-16T05:25:06.559Z,77.36
2023-03-16T05:26:38.151Z,79.28
2023-03-16T05:28:09.740Z,77.33
2023-03-16T05:29:45.990Z,77.04
2023-03-16T05:31:17.641Z,76.37
2023-03-16T05:32:49.267Z,77.98
2023-03-16T05:34:22.205Z,77.17
2023-03-16T05:35:53.888Z,77.73
2023-03-16T05:38:58.285Z,77.22
2023-03-16T05:40:30.176Z,77.18
2023-03-16T05:42:01.958Z,76.68
2023-03-16T05:43:34.390Z,76.18
2023-03-16T05:45:07.081Z,76.29
2023-03-16T05:46:38.845Z,76.02
2023-03-16T05:48:10.508Z,76.21
2023-03-16T05:49:43.542Z,77.25
2023-03-16T05:51:15.144Z,76.96
2023-03-16T05:52:46.890Z,77.69
2023-03-16T05:54:18.481Z,76.89
2023-03-16T05:55:53.540Z,76.03
2023-03-16T05:57:27.069Z,76.61
2023-03-16T05:59:00.526Z,77.56
2023-03-16T06:00:32.166Z,77.58
2023-03-16T06:02:03.999Z,76.17
2023-03-16T06:03:35.619Z,76.58
2023-03-16T06:05:09.294Z,76.60
2023-03-16T06:06:40.956Z,76.95
2023-03-16T06:08:12.740Z,76.98
2023-03-16T06:09:44.387Z,75.54
2023-03-16T06:11:16.223Z,75.20
2023-03-16T06:12:47.910Z,75.55
2023-03-16T06:14:19.563Z,76.84
2023-03-16T06:15:51.288Z,76.33
2023-03-16T06:17:22.902Z,75.78
2023-03-16T06:18:59.144Z,75.42
2023-03-16T06:20:32.697Z,75.62
2023-03-16T06:22:04.439Z,75.73
2023-03-16T06:23:36.053Z,75.73
2023-03-16T06:25:08.454Z,75.80
2023-03-16T06:26:40.105Z,75.88
2023-03-16T06:28:11.798Z,76.66
2023-03-16T06:29:43.435Z,76.60
2023-03-16T06:31:18.522Z,76.04
2023-03-16T06:32:50.172Z,76.69
2023-03-16T06:34:22.596Z,76.80
2023-03-16T06:35:55.675Z,75.91
2023-03-16T06:37:27.305Z,79.11
2023-03-16T06:38:58.876Z,76.69
2023-03-16T06:40:32.498Z,77.28
2023-03-16T06:42:04.925Z,76.58
2023-03-16T06:43:36.788Z,77.53
2023-03-16T06:45:10.118Z,78.51
2023-03-16T06:46:41.791Z,77.55
2023-03-16T06:48:13.546Z,77.21
2023-03-16T06:49:46.913Z,78.37
2023-03-16T06:51:19.958Z,79.05
2023-03-16T06:52:51.692Z,78.78
2023-03-16T06:54:23.269Z,79.27
2023-03-16T06:55:54.891Z,77.47
2023-03-16T06:57:26.599Z,78.86
2023-03-16T06:58:58.186Z,78.76
2023-03-16T07:00:30.861Z,78.57
2023-03-16T07:02:02.548Z,76.52
2023-03-16T07:03:34.319Z,78.30
2023-03-16T07:05:06.801Z,78.82
2023-03-16T07:06:39.860Z,77.55
2023-03-16T07:08:12.194Z,77.89
2023-03-16T07:09:43.939Z,78.28
2023-03-16T07:11:15.647Z,75.90
2023-03-16T07:12:47.281Z,76.28
2023-03-16T07:14:19.957Z,75.86
2023-03-16T07:15:57.658Z,74.50
2023-03-16T07:17:29.262Z,74.47
2023-03-16T07:19:01.755Z,75.36
2023-03-16T07:20:34.285Z,75.02
2023-03-16T07:22:07.304Z,74.01
2023-03-16T07:23:38.895Z,74.79
2023-03-16T07:25:11.553Z,74.93
2023-03-16T07:26:43.342Z,74.64
2023-03-16T07:28:15.029Z,74.15
2023-03-16T07:29:46.638Z,72.62
2023-03-16T07:31:18.344Z,74.14
2023-03-16T07:32:50.083Z,73.88
2023-03-16T07:34:21.826Z,73.43
2023-03-16T07:35:53.622Z,73.04
2023-03-16T07:37:26.813Z,71.79
2023-03-16T07:38:58.536Z,72.69
2023-03-16T07:40:30.649Z,73.48
2023-03-16T07:42:02.718Z,72.35
2023-03-16T07:43:34.518Z,72.15
2023-03-16T07:45:07.491Z,72.04
2023-03-16T07:46:39.102Z,73.10
2023-03-16T07:48:10.706Z,74.20
2023-03-16T07:49:43.852Z,72.94
2023-03-16T07:51:15.725Z,72.78
2023-03-16T07:52:48.730Z,73.29
2023-03-16T07:54:20.413Z,72.57
2023-03-16T07:55:52.014Z,71.69
2023-03-16T07:57:23.684Z,73.53
2023-03-16T07:58:55.333Z,71.65
2023-03-16T08:00:27.516Z,71.04
2023-03-16T08:01:59.254Z,73.93
2023-03-16T08:03:32.068Z,73.24
2023-03-16T08:05:04.171Z,71.63
2023-03-16T08:06:35.783Z,71.10
2023-03-16T08:08:09.724Z,71.37
2023-03-16T08:09:41.491Z,71.70
2023-03-16T08:11:13.237Z,71.21
2023-03-16T08:12:45.023Z,70.96
2023-03-16T08:14:16.729Z,69.51
2023-03-16T08:15:48.610Z,71.53
2023-03-16T08:17:26.222Z,69.87
2023-03-16T08:18:57.886Z,70.63
2023-03-16T08:20:29.796Z,70.68
2023-03-16T08:22:02.280Z,70.42
2023-03-16T08:23:36.177Z,69.37
2023-03-16T08:25:12.935Z,69.12
2023-03-16T08:26:44.626Z,68.41
2023-03-16T08:28:17.039Z,69.11
2023-03-16T08:29:51.963Z,67.51
2023-03-16T08:31:25.435Z,68.26
2023-03-16T08:32:57.485Z,68.59
2023-03-16T08:34:33.672Z,67.96
2023-03-16T08:36:06.149Z,68.30
2023-03-16T08:37:40.025Z,68.08
2023-03-16T08:39:13.236Z,67.67
2023-03-16T08:40:48.932Z,67.31
2023-03-16T08:42:21.139Z,66.90
2023-03-16T08:43:52.870Z,68.09
2023-03-16T08:45:24.470Z,66.80
2023-03-16T08:46:56.177Z,68.72
2023-03-16T08:48:28.760Z,68.30
2023-03-16T08:50:01.147Z,67.85
2023-03-16T08:51:32.825Z,67.97
2023-03-16T08:53:06.032Z,68.31
2023-03-16T08:54:47.149Z,68.21
2023-03-16T08:56:24.566Z,69.23
2023-03-16T08:57:56.239Z,68.34
2023-03-16T08:59:30.855Z,66.57
2023-03-16T09:01:04.012Z,66.84
2023-03-16T09:02:38.503Z,67.62
2023-03-16T09:04:11.786Z,67.13
2023-03-16T09:05:43.475Z,68.73
2023-03-16T09:07:15.119Z,68.12
2023-03-16T09:08:47.821Z,64.74
2023-03-16T09:10:23.022Z,64.60
2023-03-16T09:11:54.626Z,64.42
2023-03-16T09:13:28.389Z,64.90
2023-03-16T09:15:00.528Z,63.84
2023-03-16T09:16:32.153Z,62.49
2023-03-16T09:18:04.124Z,63.53
2023-03-16T09:19:52.856Z,65.63
2023-03-16T09:21:26.605Z,66.08
2023-03-16T09:22:58.845Z,64.72
2023-03-16T09:24:30.542Z,64.71
2023-03-16T09:26:14.098Z,64.41
2023-03-16T09:27:45.749Z,60.40
2023-03-16T09:29:22.761Z,61.47
2023-03-16T09:30:57.303Z,63.60
2023-03-16T09:32:30.240Z,61.73
2023-03-16T09:37:35.314Z,63.99
2023-03-16T09:39:11.917Z,65.59
2023-03-16T09:40:44.559Z,65.28
2023-03-16T09:42:20.779Z,64.99
2023-03-16T09:43:58.336Z,61.53
2023-03-16T09:45:34.563Z,61.19
2023-03-16T09:47:06.414Z,62.35
2023-03-16T09:48:38.844Z,60.59
2023-03-16T09:50:16.520Z,61.02
2023-03-16T09:51:49.777Z,61.87
2023-03-16T09:53:24.948Z,60.07
2023-03-16T09:54:58.091Z,60.87
2023-03-16T09:56:35.542Z,62.87
2023-03-16T09:58:16.520Z,61.47
2023-03-16T09:59:48.345Z,59.09
2023-03-16T10:01:24.316Z,59.76
2023-03-16T10:03:13.437Z,59.17
2023-03-16T10:04:57.463Z,60.97
2023-03-16T10:06:29.534Z,62.19
2023-03-16T10:08:07.960Z,62.83
2023-03-16T10:09:43.581Z,63.10
2023-03-16T10:11:27.244Z,61.40
2023-03-16T10:13:00.108Z,62.02
2023-03-16T10:14:51.087Z,63.93
2023-03-16T10:16:24.730Z,62.87
2023-03-16T10:18:00.223Z,59.27
2023-03-16T10:19:40.168Z,61.08
2023-03-16T10:21:21.206Z,61.16
2023-03-16T10:22:55.438Z,59.02
2023-03-16T10:24:38.868Z,57.97
2023-03-16T10:26:13.686Z,60.30
2023-03-16T10:27:50.745Z,59.40
2023-03-16T10:29:37.875Z,58.21
2023-03-16T10:31:14.124Z,57.40
2023-03-16T10:32:45.956Z,57.72
2023-03-16T10:34:17.674Z,56.54
2023-03-16T10:35:51.383Z,55.74
2023-03-16T10:37:26.452Z,52.88
2023-03-16T10:39:00.124Z,53.26
2023-03-16T10:40:32.209Z,53.95
2023-03-16T10:42:10.769Z,52.31
2023-03-16T10:43:43.080Z,55.19
2023-03-16T10:45:33.551Z,52.42
2023-03-16T10:47:09.848Z,51.89
2023-03-16T10:48:42.369Z,52.55
2023-03-16T10:50:26.254Z,52.94
2023-03-16T10:51:59.656Z,48.56
2023-03-16T10:53:32.834Z,48.82
2023-03-16T10:55:08.755Z,51.67
2023-03-16T10:56:44.886Z,52.04
2023-03-16T10:58:26.959Z,51.40
2023-03-16T11:00:00.831Z,50.97
2023-03-16T11:01:33.789Z,50.92
2023-03-16T11:03:23.041Z,50.93
2023-03-16T11:04:56.168Z,50.65
2023-03-16T11:06:30.843Z,50.47
2023-03-16T11:08:11.881Z,49.15
2023-03-16T11:09:44.857Z,50.55
2023-03-16T11:11:17.931Z,48.54
2023-03-16T11:12:50.879Z,49.74
2023-03-16T11:14:35.601Z,48.69
2023-03-16T11:16:17.141Z,48.70
2023-03-16T11:17:53.079Z,48.14
2023-03-16T11:19:27.365Z,47.10
2023-03-16T11:21:00.691Z,47.22
2023-03-16T11:22:32.832Z,47.93
2023-03-16T11:24:04.886Z,46.44
2023-03-16T11:25:38.876Z,45.61
2023-03-16T11:27:15.520Z,47.82
2023-03-16T11:28:49.029Z,45.84
2023-03-16T11:30:24.193Z,45.36
2023-03-16T11:31:57.765Z,46.71
2023-03-16T11:33:31.168Z,48.76
2023-03-16T11:35:16.555Z,45.85
2023-03-16T11:36:50.774Z,45.20
2023-03-16T11:38:27.011Z,45.03
2023-03-16T11:40:05.407Z,44.87
2023-03-16T11:41:43.461Z,44.58
2023-03-16T11:43:27.524Z,43.73
2023-03-16T11:45:03.482Z,46.15
2023-03-16T11:46:36.861Z,45.35
2023-03-16T11:48:29.352Z,47.07
2023-03-16T11:50:01.670Z,45.73
2023-03-16T11:51:42.212Z,43.98
2023-03-16T11:53:18.590Z,44.32
2023-03-16T11:54:55.421Z,43.35
2023-03-16T11:56:31.197Z,44.20
2023-03-16T11:58:15.637Z,46.27
2023-03-16T12:00:01.443Z,43.31
2023-03-16T12:01:47.735Z,45.32
2023-03-16T12:03:55.162Z,45.14
2023-03-16T12:05:43.018Z,46.77
2023-03-16T12:07:26.471Z,46.79
2023-03-16T12:09:17.764Z,43.18
2023-03-16T12:10:50.779Z,45.37
2023-03-16T12:12:30.095Z,45.57
2023-03-16T12:14:11.395Z,44.78
2023-03-16T12:15:45.113Z,44.61
2023-03-16T12:17:18.042Z,46.49
2023-03-16T12:18:51.635Z,44.86
2023-03-16T12:20:24.772Z,46.01
2023-03-16T12:22:02.292Z,45.05
2023-03-16T12:23:36.827Z,44.55
2023-03-16T12:25:14.947Z,42.21
2023-03-16T12:26:49.526Z,43.83
2023-03-16T12:28:23.890Z,45.36
2023-03-16T12:29:59.926Z,45.25
2023-03-16T12:31:37.518Z,44.71
2023-03-16T12:33:12.857Z,43.61
2023-03-16T12:34:46.615Z,45.89
2023-03-16T12:36:52.282Z,44.48
2023-03-16T12:38:38.475Z,43.87
2023-03-16T12:40:18.635Z,43.65
2023-03-16T12:41:57.282Z,42.47
2023-03-16T12:43:36.159Z,42.36
2023-03-16T12:45:10.671Z,41.74
2023-03-16T12:46:48.043Z,40.77
2023-03-16T12:48:23.000Z,42.82
2023-03-16T12:49:57.028Z,44.28
2023-03-16T12:51:35.481Z,41.84
2023-03-16T12:53:07.154Z,42.25
2023-03-16T12:54:52.009Z,43.43
2023-03-16T12:56:28.339Z,41.88
2023-03-16T12:58:03.228Z,41.59
2023-03-16T12:59:39.071Z,41.47
2023-03-16T13:01:11.465Z,41.72
2023-03-16T13:02:44.511Z,43.50
2023-03-16T13:04:16.993Z,43.17
2023-03-16T13:05:51.163Z,40.36
2023-03-16T13:07:25.859Z,40.52
2023-03-16T13:09:11.757Z,41.90
2023-03-16T13:10:59.117Z,39.84
2023-03-16T13:12:32.920Z,40.80
2023-03-16T13:14:12.674Z,40.59
2023-03-16T13:15:47.560Z,39.16
2023-03-16T13:17:24.465Z,37.41
2023-03-16T13:18:56.585Z,38.79
2023-03-16T13:20:31.266Z,37.19
2023-03-16T13:22:06.497Z,36.43
2023-03-16T13:23:58.419Z,36.96
2023-03-16T13:25:39.133Z,36.35
2023-03-16T13:27:24.825Z,36.02
2023-03-16T13:28:57.125Z,37.39
2023-03-16T13:30:30.781Z,38.02
2023-03-16T13:32:04.810Z,36.78
2023-03-16T13:33:36.939Z,37.01
2023-03-16T13:35:12.126Z,35.82
2023-03-16T13:36:45.148Z,36.56
2023-03-16T13:38:17.569Z,36.76
2023-03-16T13:39:53.950Z,34.64
2023-03-16T13:41:25.789Z,34.88
2023-03-16T13:42:58.904Z,36.93
2023-03-16T13:44:31.359Z,33.29
2023-03-16T13:46:13.746Z,36.50
2023-03-16T13:47:46.038Z,33.41
2023-03-16T13:49:18.451Z,35.80
2023-03-16T13:50:53.453Z,37.17
2023-03-16T13:52:26.796Z,37.23
2023-03-16T13:53:58.815Z,36.33
2023-03-16T13:55:31.704Z,35.88
2023-03-16T13:57:03.704Z,36.16
2023-03-16T13:58:37.838Z,36.39
2023-03-16T14:00:18.787Z,32.69
2023-03-16T14:01:57.922Z,34.34
2023-03-16T14:03:32.813Z,35.37
2023-03-16T14:05:10.224Z,34.96
2023-03-16T14:06:51.871Z,31.07
2023-03-16T14:08:23.615Z,30.22
2023-03-16T14:09:59.060Z,30.14
2023-03-16T14:11:30.742Z,31.29
2023-03-16T14:13:10.182Z,32.39
2023-03-16T14:14:46.212Z,31.58
2023-03-16T14:16:18.552Z,31.11
2023-03-16T14:17:51.052Z,31.97
2023-03-16T14:19:24.536Z,32.17
2023-03-16T14:20:56.239Z,30.71
2023-03-16T14:22:29.493Z,32.96
2023-03-16T14:24:02.209Z,34.06
2023-03-16T14:25:37.569Z,32.00
2023-03-16T14:27:14.479Z,32.28
2023-03-16T14:28:54.265Z,30.81
2023-03-16T14:30:28.379Z,31.89
2023-03-16T14:32:02.340Z,34.38
2023-03-16T14:33:37.921Z,34.70
2023-03-16T14:35:13.942Z,31.00
2023-03-16T14:36:48.134Z,31.54
2023-03-16T14:38:22.176Z,31.74
2023-03-16T14:39:58.244Z,29.92
2023-03-16T14:41:33.323Z,33.18
2023-03-16T14:43:04.966Z,29.64
2023-03-16T14:44:37.406Z,31.01
2023-03-16T14:46:19.711Z,29.77
2023-03-16T14:47:52.486Z,30.99
2023-03-16T14:49:28.252Z,32.07
2023-03-16T14:51:01.041Z,28.66
2023-03-16T14:52:32.810Z,30.96
2023-03-16T14:54:10.653Z,32.01
2023-03-16T14:55:43.222Z,28.99
2023-03-16T14:57:16.772Z,31.79
2023-03-16T14:58:48.502Z,31.48
2023-03-16T15:00:21.616Z,29.20
2023-03-16T15:01:55.346Z,32.72
2023-03-16T15:03:33.010Z,33.76
2023-03-16T15:05:05.433Z,32.16
2023-03-16T15:06:37.127Z,30.43
2023-03-16T15:08:14.820Z,31.12
2023-03-16T15:09:46.589Z,32.24
2023-03-16T15:11:21.525Z,31.28
2023-03-16T15:13:04.245Z,30.21
2023-03-16T15:14:54.925Z,31.15
2023-03-16T15:16:26.659Z,28.69
2023-03-16T15:18:00.150Z,32.50
2023-03-16T15:19:32.292Z,32.47
2023-03-16T15:21:06.608Z,31.15
2023-03-16T15:22:38.550Z,30.33
2023-03-16T15:24:12.190Z,32.25
2023-03-16T15:25:44.819Z,30.80
2023-03-16T15:27:19.783Z,32.39
2023-03-16T15:28:51.716Z,31.52
2023-03-16T15:30:24.441Z,31.04
2023-03-16T15:31:56.123Z,30.12
2023-03-16T15:33:29.300Z,29.80
2023-03-16T15:35:01.042Z,29.99
2023-03-16T15:36:32.812Z,32.58
2023-03-16T15:38:07.046Z,31.30
2023-03-16T15:39:38.671Z,33.33
2023-03-16T15:41:10.699Z,30.52
2023-03-16T15:42:44.088Z,33.08
2023-03-16T15:44:17.246Z,30.93
2023-03-16T15:45:49.084Z,30.89
2023-03-16T15:47:22.020Z,31.81
2023-03-16T15:48:59.560Z,32.07
2023-03-16T15:50:33.724Z,33.19
2023-03-16T15:52:13.932Z,32.28
2023-03-16T15:53:50.021Z,33.87
2023-03-16T15:55:23.647Z,33.70
2023-03-16T15:56:56.058Z,34.10
2023-03-16T15:58:33.778Z,33.70
2023-03-16T16:00:20.618Z,35.57
2023-03-16T16:01:55.414Z,33.76
2023-03-16T16:03:27.480Z,35.17
2023-03-16T16:05:03.429Z,34.90
2023-03-16T16:06:35.154Z,36.53
2023-03-16T16:08:07.011Z,33.38
2023-03-16T16:09:56.468Z,35.16
2023-03-16T16:11:28.261Z,33.62
2023-03-16T16:13:00.128Z,35.64
2023-03-16T16:14:35.382Z,32.51
2023-03-16T16:16:13.934Z,35.28
2023-03-16T16:18:06.115Z,33.01
2023-03-16T16:19:39.667Z,34.27
2023-03-16T16:21:16.271Z,34.12
2023-03-16T16:22:48.111Z,33.00
2023-03-16T16:24:21.895Z,33.29
2023-03-16T16:25:54.210Z,34.31
2023-03-16T16:27:26.185Z,33.33
2023-03-16T16:29:00.851Z,35.06
2023-03-16T16:30:35.593Z,33.61
2023-03-16T16:32:25.821Z,33.37
2023-03-16T16:33:59.028Z,34.71
2023-03-16T16:35:31.492Z,35.69
2023-03-16T16:37:04.997Z,36.03
2023-03-16T16:38:36.809Z,33.74
2023-03-16T16:40:17.324Z,35.88
2023-03-16T16:41:49.238Z,35.62
2023-03-16T16:43:29.953Z,34.96
2023-03-16T16:45:02.068Z,35.31
2023-03-16T16:46:42.209Z,35.05
2023-03-16T16:48:24.953Z,33.47
2023-03-16T16:49:56.845Z,38.19
2023-03-16T16:51:29.863Z,35.33
2023-03-16T16:53:09.224Z,39.08
2023-03-16T16:54:43.521Z,39.56
2023-03-16T16:56:17.416Z,36.49
2023-03-16T16:57:49.529Z,39.78
2023-03-16T16:59:22.841Z,42.36
2023-03-16T17:00:55.786Z,44.07
2023-03-16T17:02:29.520Z,45.72
2023-03-16T17:04:04.669Z,43.55
2023-03-16T17:05:36.800Z,45.56
2023-03-16T17:07:09.455Z,45.77
2023-03-16T17:08:43.290Z,46.87
2023-03-16T17:10:16.850Z,44.88
2023-03-16T17:11:48.514Z,44.38
2023-03-16T17:13:26.809Z,45.12
2023-03-16T17:14:58.600Z,45.91
2023-03-16T17:16:34.709Z,43.60
2023-03-16T17:18:10.402Z,46.24
2023-03-16T17:19:46.558Z,47.43
2023-03-16T17:21:19.943Z,46.59
2023-03-16T17:22:52.704Z,48.97
2023-03-16T17:24:25.984Z,49.10
2023-03-16T17:25:58.491Z,48.50
2023-03-16T17:27:31.442Z,47.91
2023-03-16T17:29:06.202Z,49.68
2023-03-16T17:30:38.346Z,48.46
2023-03-16T17:32:16.788Z,49.33
2023-03-16T17:33:48.525Z,49.77
2023-03-16T17:35:20.414Z,50.88
2023-03-16T17:36:52.634Z,51.38
2023-03-16T17:38:25.044Z,52.29
2023-03-16T17:39:58.252Z,53.74
2023-03-16T17:41:33.060Z,54.38
2023-03-16T17:43:06.214Z,55.08
2023-03-16T17:44:40.359Z,55.09
2023-03-16T17:46:12.486Z,53.77
2023-03-16T17:47:44.234Z,54.33
2023-03-16T17:49:20.048Z,53.65
2023-03-16T17:50:52.122Z,54.47
2023-03-16T17:52:25.737Z,53.58
2023-03-16T17:53:57.934Z,53.87
2023-03-16T17:55:32.294Z,53.98
2023-03-16T17:57:04.363Z,54.32
2023-03-16T17:58:36.143Z,54.15
2023-03-16T18:00:18.562Z,54.28
2023-03-16T18:01:50.225Z,54.31
2023-03-16T18:03:22.474Z,53.26
2023-03-16T18:04:54.280Z,53.41
2023-03-16T18:06:26.500Z,55.06
2023-03-16T18:07:59.332Z,55.15
2023-03-16T18:09:36.321Z,55.68
2023-03-16T18:11:12.207Z,54.40
2023-03-16T18:12:44.168Z,56.53
2023-03-16T18:14:21.694Z,55.91
2023-03-16T18:15:53.904Z,56.37
2023-03-16T18:17:27.984Z,55.77
2023-03-16T18:19:02.459Z,55.78
2023-03-16T18:20:36.681Z,57.11
2023-03-16T18:22:12.359Z,56.55
2023-03-16T18:23:46.862Z,58.08
2023-03-16T18:25:28.345Z,57.57
2023-03-16T18:27:01.549Z,56.13
2023-03-16T18:28:33.687Z,56.37
2023-03-16T18:30:06.577Z,55.79
2023-03-16T18:31:38.365Z,54.54
2023-03-16T18:33:23.590Z,55.97
2023-03-16T18:34:55.587Z,53.32
2023-03-16T18:36:28.969Z,52.14
2023-03-16T18:38:00.925Z,53.36
2023-03-16T18:39:32.699Z,54.97
2023-03-16T18:41:15.833Z,53.40
2023-03-16T18:42:49.011Z,52.50
2023-03-16T18:44:21.659Z,52.97
2023-03-16T18:45:54.879Z,54.24
2023-03-16T18:47:31.495Z,53.08
2023-03-16T18:49:04.277Z,54.34
2023-03-16T18:50:36.288Z,54.11
2023-03-16T18:52:12.693Z,55.13
2023-03-16T18:53:44.442Z,54.54
2023-03-16T18:55:18.453Z,54.61
2023-03-16T18:56:50.164Z,55.84
2023-03-16T18:58:23.963Z,56.17
2023-03-16T18:59:55.736Z,56.54
2023-03-16T19:01:28.511Z,56.29
2023-03-16T19:03:03.053Z,58.15
2023-03-16T19:04:35.017Z,58.25
2023-03-16T19:06:07.522Z,58.17
2023-03-16T19:07:41.121Z,57.72
2023-03-16T19:09:14.016Z,57.30
2023-03-16T19:10:48.159Z,57.55
2023-03-16T19:12:20.597Z,57.26
2023-03-16T19:13:54.725Z,58.08
2023-03-16T19:15:27.795Z,57.81
2023-03-16T19:17:02.926Z,58.44
2023-03-16T19:18:43.595Z,57.22
2023-03-16T19:20:16.609Z,58.22
2023-03-16T19:21:48.707Z,58.32
2023-03-16T19:23:23.587Z,58.29
2023-03-16T19:24:55.853Z,58.88
2023-03-16T19:26:30.628Z,58.69
2023-03-16T19:28:04.237Z,57.99
2023-03-16T19:29:40.704Z,58.42
2023-03-16T19:31:16.554Z,58.88
2023-03-16T19:32:48.295Z,58.18
2023-03-16T19:34:19.982Z,57.49
2023-03-16T19:35:55.137Z,58.48
2023-03-16T19:37:30.005Z,58.26
2023-03-16T19:39:01.958Z,58.08
2023-03-16T19:40:34.169Z,60.01
2023-03-16T19:42:06.275Z,60.27
2023-03-16T19:43:37.949Z,60.13
2023-03-16T19:45:18.216Z,59.58
2023-03-16T19:46:49.803Z,60.35
2023-03-16T19:48:31.185Z,60.22
2023-03-16T19:50:05.655Z,59.98
2023-03-16T19:51:37.314Z,59.59
2023-03-16T19:53:14.873Z,59.14
2023-03-16T19:54:46.516Z,59.74
2023-03-16T19:56:19.194Z,59.72
2023-03-16T19:57:55.153Z,58.92
2023-03-16T19:59:28.822Z,59.37
2023-03-16T20:01:02.112Z,59.33
2023-03-16T20:02:36.301Z,61.21
2023-03-16T20:04:14.300Z,60.20
2023-03-16T20:05:45.972Z,58.48
2023-03-16T20:07:17.764Z,58.54
2023-03-16T20:08:49.858Z,58.81
2023-03-16T20:10:22.522Z,59.02
2023-03-16T20:11:54.575Z,59.33
2023-03-16T20:13:26.314Z,59.18
2023-03-16T20:14:59.513Z,59.68
2023-03-16T20:16:33.565Z,60.01
2023-03-16T20:18:06.720Z,58.56